createdAt,value
2019-05-09T00:01:15.547Z,20.70
2019-05-09T00:03:45.219Z,20.70
2019-05-09T00:06:14.895Z,20.70
2019-05-09T00:08:44.502Z,20.70
2019-05-09T00:11:14.628Z,20.70
2019-05-09T00:13:44.486Z,20.70
2019-05-09T00:16:14.682Z,20.70
2019-05-09T00:18:44.477Z,20.70
2019-05-09T00:21:19.247Z,20.70
2019-05-09T00:23:48.851Z,20.70
2019-05-09T00:26:18.527Z,20.70
2019-05-09T00:28:53.232Z,20.70
2019-05-09T00:31:48.324Z,20.70
2019-05-09T00:34:26.735Z,20.70
2019-05-09T00:36:56.340Z,20.70
2019-05-09T00:39:25.935Z,20.70
2019-05-09T00:41:55.548Z,20.70
2019-05-09T00:44:27.732Z,20.70
2019-05-09T00:47:16.429Z,20.70
2019-05-09T00:49:46.023Z,20.70
2019-05-09T00:52:15.619Z,20.70
2019-05-09T00:54:45.211Z,20.70
2019-05-09T00:57:33.574Z,20.70
2019-05-09T01:00:08.520Z,20.70
2019-05-09T01:02:39.095Z,20.70
2019-05-09T01:05:08.954Z,20.70
2019-05-09T01:07:38.647Z,20.70
2019-05-09T01:10:09.211Z,20.70
2019-05-09T01:12:38.816Z,20.70
2019-05-09T01:15:08.855Z,20.70
2019-05-09T01:17:38.526Z,20.70
2019-05-09T01:20:08.687Z,20.70
2019-05-09T01:22:38.294Z,20.70
2019-05-09T01:25:08.035Z,20.70
2019-05-09T01:27:37.644Z,20.60
2019-05-09T01:30:07.564Z,20.60
2019-05-09T01:33:03.606Z,20.70
2019-05-09T01:35:34.004Z,20.60
2019-05-09T01:38:03.813Z,20.60
2019-05-09T01:40:33.503Z,20.60
2019-05-09T01:43:04.501Z,20.60
2019-05-09T01:45:35.239Z,20.60
2019-05-09T01:48:05.005Z,20.60
2019-05-09T01:50:34.595Z,20.60
2019-05-09T01:53:04.254Z,20.70
2019-05-09T01:55:53.836Z,20.60
2019-05-09T01:58:23.311Z,20.70
2019-05-09T02:00:53.995Z,20.60
2019-05-09T02:03:24.930Z,20.60
2019-05-09T02:05:54.591Z,20.60
2019-05-09T02:08:24.207Z,20.60
2019-05-09T02:10:54.368Z,20.60
2019-05-09T02:13:24.031Z,20.60
2019-05-09T02:16:13.980Z,20.60
2019-05-09T02:18:57.175Z,20.60
2019-05-09T02:21:26.786Z,20.60
2019-05-09T02:23:56.412Z,20.60
2019-05-09T02:26:26.018Z,20.60
2019-05-09T02:28:55.612Z,20.60
2019-05-09T02:31:25.212Z,20.60
2019-05-09T02:33:54.812Z,20.60
2019-05-09T02:36:24.424Z,20.60
2019-05-09T02:38:54.013Z,20.60
2019-05-09T02:41:23.715Z,20.60
2019-05-09T02:43:54.289Z,20.60
2019-05-09T02:46:38.324Z,20.60
2019-05-09T02:49:08.803Z,20.60
2019-05-09T02:51:38.831Z,20.60
2019-05-09T02:54:09.767Z,20.60
2019-05-09T02:56:39.797Z,20.60
2019-05-09T02:59:21.907Z,20.60
2019-05-09T03:02:01.964Z,20.60
2019-05-09T03:04:31.834Z,20.60
2019-05-09T03:07:01.507Z,20.60
2019-05-09T03:09:31.362Z,20.60
2019-05-09T03:12:20.497Z,20.60
2019-05-09T03:14:32.326Z,20.50
2019-05-09T03:17:02.407Z,20.50
2019-05-09T03:19:32.098Z,20.50
2019-05-09T03:22:08.736Z,20.50
2019-05-09T03:24:39.449Z,20.50
2019-05-09T03:27:15.032Z,20.50
2019-05-09T03:29:49.049Z,20.50
2019-05-09T03:32:19.711Z,20.50
2019-05-09T03:34:49.475Z,20.60
2019-05-09T03:37:19.103Z,20.60
2019-05-09T03:39:48.771Z,20.60
2019-05-09T03:42:21.603Z,20.60
2019-05-09T03:44:49.692Z,20.60
2019-05-09T03:47:37.687Z,20.60
2019-05-09T03:50:08.559Z,20.60
2019-05-09T03:52:39.127Z,20.60
2019-05-09T03:55:10.907Z,20.60
2019-05-09T03:57:44.360Z,20.60
2019-05-09T04:00:14.279Z,20.60
2019-05-09T04:02:43.888Z,20.60
2019-05-09T04:05:13.551Z,20.60
2019-05-09T04:07:43.175Z,20.60
2019-05-09T04:10:12.861Z,20.50
2019-05-09T04:12:55.555Z,20.50
2019-05-09T04:15:14.094Z,20.50
2019-05-09T04:17:44.106Z,20.50
2019-05-09T04:20:17.325Z,20.50
2019-05-09T04:22:48.937Z,20.50
2019-05-09T04:25:21.859Z,20.50
2019-05-09T04:27:52.510Z,20.50
2019-05-09T04:30:22.184Z,20.50
2019-05-09T04:32:51.775Z,20.50
2019-05-09T04:35:21.463Z,20.50
2019-05-09T04:37:51.059Z,20.50
2019-05-09T04:40:20.688Z,20.60
2019-05-09T04:42:50.283Z,20.50
2019-05-09T04:45:28.349Z,20.60
2019-05-09T04:47:58.060Z,20.60
2019-05-09T04:50:27.990Z,20.60
2019-05-09T04:52:58.092Z,20.60
2019-05-09T04:55:29.335Z,20.60
2019-05-09T04:58:00.225Z,20.60
2019-05-09T05:00:49.004Z,20.60
2019-05-09T05:03:18.595Z,20.50
2019-05-09T05:05:48.309Z,20.50
2019-05-09T05:08:18.220Z,20.50
2019-05-09T05:10:47.883Z,20.50
2019-05-09T05:13:26.009Z,20.50
2019-05-09T05:15:48.767Z,20.50
2019-05-09T05:18:20.265Z,20.50
2019-05-09T05:20:49.659Z,20.50
2019-05-09T05:23:27.484Z,20.50
2019-05-09T05:25:57.998Z,20.50
2019-05-09T05:28:27.892Z,20.50
2019-05-09T05:30:58.201Z,20.50
2019-05-09T05:33:38.227Z,20.50
2019-05-09T05:36:08.941Z,20.50
2019-05-09T05:38:38.537Z,20.50
2019-05-09T05:41:08.158Z,20.50
2019-05-09T05:43:44.039Z,20.50
2019-05-09T05:46:33.875Z,20.50
2019-05-09T05:49:03.555Z,20.50
2019-05-09T05:51:48.844Z,20.50
2019-05-09T05:54:21.695Z,20.50
2019-05-09T05:56:51.369Z,20.50
2019-05-09T05:59:20.992Z,20.40
2019-05-09T06:01:50.563Z,20.40
2019-05-09T06:04:20.171Z,20.40
2019-05-09T06:06:49.764Z,20.50
2019-05-09T06:09:19.371Z,20.50
2019-05-09T06:11:48.972Z,20.50
2019-05-09T06:14:18.805Z,20.50
2019-05-09T06:16:48.857Z,20.50
2019-05-09T06:19:18.556Z,21.00
2019-05-09T06:21:52.236Z,20.80
2019-05-09T06:24:21.471Z,20.70
2019-05-09T06:26:51.069Z,20.60
2019-05-09T06:29:20.691Z,20.50
2019-05-09T06:31:50.291Z,20.50
2019-05-09T06:34:19.984Z,20.50
2019-05-09T06:36:49.588Z,20.50
2019-05-09T06:39:19.204Z,20.50
2019-05-09T06:41:48.800Z,20.50
2019-05-09T06:44:37.536Z,20.50
2019-05-09T06:47:11.592Z,20.50
2019-05-09T06:49:43.919Z,20.50
2019-05-09T06:52:13.523Z,20.50
2019-05-09T06:54:43.122Z,20.50
2019-05-09T06:57:12.732Z,20.50
2019-05-09T06:59:42.320Z,20.50
2019-05-09T07:02:21.759Z,20.50
2019-05-09T07:05:17.933Z,20.50
2019-05-09T07:08:00.111Z,20.50
2019-05-09T07:10:29.753Z,20.50
2019-05-09T07:12:59.355Z,20.50
2019-05-09T07:15:28.968Z,20.50
2019-05-09T07:17:58.563Z,20.50
2019-05-09T07:20:28.496Z,20.70
2019-05-09T07:22:58.495Z,20.70
2019-05-09T07:25:59.185Z,20.70
2019-05-09T07:28:28.854Z,20.90
2019-05-09T07:31:23.359Z,21.40
2019-05-09T07:34:00.403Z,21.40
2019-05-09T07:36:30.559Z,21.50
2019-05-09T07:39:00.159Z,21.30
2019-05-09T07:41:29.761Z,21.30
2019-05-09T07:43:59.355Z,21.40
2019-05-09T07:46:38.451Z,21.70
2019-05-09T07:49:10.991Z,22.20
2019-05-09T07:51:40.599Z,21.90
2019-05-09T07:54:22.051Z,22.60
2019-05-09T07:56:42.631Z,22.50
2019-05-09T07:59:12.259Z,22.20
2019-05-09T08:01:41.876Z,22.30
2019-05-09T08:04:11.475Z,22.70
2019-05-09T08:06:41.107Z,23.10
2019-05-09T08:09:10.796Z,22.60
2019-05-09T08:11:40.436Z,22.50
2019-05-09T08:14:10.946Z,22.70
2019-05-09T08:16:41.638Z,22.90
2019-05-09T08:19:11.278Z,23.50
2019-05-09T08:21:40.907Z,23.90
2019-05-09T08:24:10.628Z,24.30
2019-05-09T08:26:40.255Z,24.80
2019-05-09T08:29:09.909Z,24.50
2019-05-09T08:31:40.400Z,24.60
2019-05-09T08:34:10.154Z,24.40
2019-05-09T08:36:39.798Z,23.90
2019-05-09T08:39:09.670Z,23.50
2019-05-09T08:41:39.294Z,23.50
2019-05-09T08:44:09.064Z,24.10
2019-05-09T08:46:38.695Z,24.60
2019-05-09T08:49:08.448Z,24.30
2019-05-09T08:52:06.969Z,23.90
2019-05-09T08:54:38.044Z,24.40
2019-05-09T08:57:08.400Z,24.50
2019-05-09T08:59:38.407Z,23.90
2019-05-09T09:02:15.069Z,23.50
2019-05-09T09:04:39.615Z,23.20
2019-05-09T09:07:10.068Z,23.10
2019-05-09T09:09:39.803Z,22.90
2019-05-09T09:12:25.839Z,22.70
2019-05-09T09:14:40.833Z,22.60
2019-05-09T09:17:10.491Z,22.50
2019-05-09T09:19:40.131Z,22.40
2019-05-09T09:22:09.850Z,22.40
2019-05-09T09:24:39.481Z,22.40
2019-05-09T09:27:09.279Z,22.40
2019-05-09T09:29:38.902Z,22.30
2019-05-09T09:32:08.670Z,22.20
2019-05-09T09:34:38.507Z,22.20
2019-05-09T09:37:11.310Z,22.10
2019-05-09T09:39:44.613Z,22.10
2019-05-09T09:42:11.059Z,22.10
2019-05-09T09:44:40.712Z,22.00
2019-05-09T09:47:10.350Z,21.90
2019-05-09T09:49:39.971Z,21.90
2019-05-09T09:52:09.782Z,21.90
2019-05-09T09:54:39.399Z,21.80
2019-05-09T09:57:09.852Z,21.80
2019-05-09T10:00:07.630Z,21.80
2019-05-09T10:02:38.006Z,21.80
2019-05-09T10:05:07.967Z,21.80
2019-05-09T10:07:38.469Z,21.80
2019-05-09T10:10:08.395Z,21.90
2019-05-09T10:12:44.329Z,21.90
2019-05-09T10:15:21.507Z,22.00
2019-05-09T10:17:58.393Z,22.00
2019-05-09T10:20:38.547Z,22.00
2019-05-09T10:23:17.650Z,22.00
2019-05-09T10:25:39.760Z,22.00
2019-05-09T10:28:09.404Z,21.90
2019-05-09T10:30:39.045Z,21.90
2019-05-09T10:33:09.337Z,21.90
2019-05-09T10:35:39.370Z,21.80
2019-05-09T10:38:09.167Z,21.80
2019-05-09T10:40:40.131Z,21.70
2019-05-09T10:43:37.624Z,21.70
2019-05-09T10:46:08.499Z,21.70
2019-05-09T10:48:38.693Z,21.70
2019-05-09T10:51:10.460Z,21.80
2019-05-09T10:53:39.652Z,21.70
2019-05-09T10:56:09.289Z,21.70
2019-05-09T10:58:39.006Z,21.60
2019-05-09T11:01:09.206Z,21.70
2019-05-09T11:03:38.978Z,21.70
2019-05-09T11:06:08.805Z,21.70
2019-05-09T11:08:38.519Z,21.60
2019-05-09T11:11:09.443Z,21.60
2019-05-09T11:13:39.287Z,21.60
2019-05-09T11:16:08.914Z,21.60
2019-05-09T11:18:38.550Z,21.60
2019-05-09T11:21:08.543Z,21.60
2019-05-09T11:23:39.296Z,21.60
2019-05-09T11:26:10.047Z,21.60
2019-05-09T11:28:39.697Z,21.60
2019-05-09T11:31:09.552Z,21.60
2019-05-09T11:33:39.320Z,21.50
2019-05-09T11:36:09.898Z,21.50
2019-05-09T11:38:43.751Z,21.60
2019-05-09T11:41:11.007Z,21.60
2019-05-09T11:43:41.652Z,21.60
2019-05-09T11:46:11.387Z,21.60
2019-05-09T11:48:41.027Z,21.50
2019-05-09T11:51:10.650Z,21.50
2019-05-09T11:53:41.251Z,21.50
2019-05-09T11:56:10.870Z,21.50
2019-05-09T11:58:40.512Z,21.50
2019-05-09T12:01:10.221Z,21.50
2019-05-09T12:03:39.863Z,21.50
2019-05-09T12:06:09.635Z,21.50
2019-05-09T12:08:39.364Z,21.50
2019-05-09T12:11:09.081Z,21.50
2019-05-09T12:13:38.722Z,21.50
2019-05-09T12:16:08.353Z,21.50
2019-05-09T12:18:38.007Z,21.40
2019-05-09T12:21:08.558Z,21.40
2019-05-09T12:23:38.324Z,21.40
2019-05-09T12:26:08.301Z,21.40
2019-05-09T12:28:38.642Z,21.40
2019-05-09T12:31:08.376Z,21.40
2019-05-09T12:33:38.028Z,21.40
2019-05-09T12:36:09.190Z,21.40
2019-05-09T12:38:40.020Z,21.40
2019-05-09T12:41:09.643Z,21.40
2019-05-09T12:43:39.280Z,21.40
2019-05-09T12:46:08.925Z,21.40
2019-05-09T12:48:38.548Z,21.40
2019-05-09T12:51:08.340Z,21.40
2019-05-09T12:53:39.617Z,21.40
2019-05-09T12:56:09.400Z,21.40
2019-05-09T12:58:39.036Z,21.40
2019-05-09T13:01:08.852Z,21.40
2019-05-09T13:03:38.482Z,21.40
2019-05-09T13:06:08.397Z,21.40
2019-05-09T13:08:38.592Z,21.40
2019-05-09T13:11:08.364Z,21.40
2019-05-09T13:13:40.862Z,21.40
2019-05-09T13:16:19.616Z,21.40
2019-05-09T13:19:03.206Z,21.40
2019-05-09T13:21:33.410Z,21.40
2019-05-09T13:24:03.372Z,21.40
2019-05-09T13:26:33.032Z,21.40
2019-05-09T13:29:02.663Z,21.40
2019-05-09T13:31:34.695Z,21.40
2019-05-09T13:34:03.728Z,21.40
2019-05-09T13:36:33.431Z,21.40
2019-05-09T13:39:05.188Z,21.40
2019-05-09T13:41:37.479Z,21.40
2019-05-09T13:44:12.975Z,21.40
2019-05-09T13:46:38.767Z,21.40
2019-05-09T13:49:14.765Z,21.40
2019-05-09T13:51:49.093Z,21.40
2019-05-09T13:54:11.333Z,21.40
2019-05-09T13:56:40.994Z,21.40
2019-05-09T13:59:10.701Z,21.40
2019-05-09T14:01:40.348Z,21.40
2019-05-09T14:04:10.066Z,21.40
2019-05-09T14:06:39.804Z,21.40
2019-05-09T14:09:10.671Z,21.40
2019-05-09T14:11:40.559Z,21.40
2019-05-09T14:14:10.229Z,21.40
2019-05-09T14:16:39.869Z,21.30
2019-05-09T14:19:29.171Z,21.30
2019-05-09T14:21:40.858Z,21.30
2019-05-09T14:24:15.405Z,21.40
2019-05-09T14:26:41.887Z,21.30
2019-05-09T14:29:13.143Z,21.30
2019-05-09T14:31:43.058Z,21.30
2019-05-09T14:34:13.740Z,21.30
2019-05-09T14:36:45.779Z,21.30
2019-05-09T14:39:14.706Z,21.30
2019-05-09T14:41:47.095Z,21.30
2019-05-09T14:44:17.943Z,21.30
2019-05-09T14:46:48.135Z,21.30
2019-05-09T14:49:18.051Z,21.30
2019-05-09T14:51:49.994Z,21.30
2019-05-09T14:54:19.079Z,21.30
2019-05-09T14:56:48.807Z,21.30
2019-05-09T14:59:18.753Z,21.30
2019-05-09T15:01:49.577Z,21.30
2019-05-09T15:04:20.431Z,21.30
2019-05-09T15:06:50.067Z,21.30
2019-05-09T15:09:19.698Z,21.30
2019-05-09T15:11:49.356Z,21.30
2019-05-09T15:14:19.047Z,21.30
2019-05-09T15:16:48.914Z,21.30
2019-05-09T15:19:18.651Z,21.30
2019-05-09T15:21:48.888Z,21.30
2019-05-09T15:24:19.355Z,21.20
2019-05-09T15:26:49.150Z,21.30
2019-05-09T15:29:18.780Z,21.30
2019-05-09T15:31:54.213Z,21.30
2019-05-09T15:34:19.772Z,21.30
2019-05-09T15:36:49.416Z,21.30
2019-05-09T15:39:19.048Z,21.30
2019-05-09T15:41:49.668Z,21.30
2019-05-09T15:44:19.306Z,21.30
2019-05-09T15:46:53.315Z,21.40
2019-05-09T15:49:22.950Z,21.40
2019-05-09T15:51:52.605Z,21.40
2019-05-09T15:54:22.247Z,21.40
2019-05-09T15:56:51.874Z,21.40
2019-05-09T15:59:21.527Z,21.30
2019-05-09T16:01:51.300Z,21.30
2019-05-09T16:04:21.004Z,21.50
2019-05-09T16:06:51.927Z,21.30
2019-05-09T16:09:22.956Z,21.40
2019-05-09T16:11:52.667Z,21.50
2019-05-09T16:14:22.289Z,21.70
2019-05-09T16:16:51.951Z,21.50
2019-05-09T16:19:21.644Z,21.40
2019-05-09T16:21:51.299Z,21.30
2019-05-09T16:24:20.981Z,21.20
2019-05-09T16:26:50.620Z,21.20
2019-05-09T16:29:20.332Z,21.30
2019-05-09T16:31:49.970Z,21.30
2019-05-09T16:34:19.603Z,21.30
2019-05-09T16:36:49.257Z,21.30
2019-05-09T16:39:18.894Z,21.40
2019-05-09T16:41:48.769Z,21.40
2019-05-09T16:44:18.751Z,21.40
2019-05-09T16:46:49.569Z,21.40
2019-05-09T16:49:19.835Z,21.40
2019-05-09T16:51:50.011Z,21.40
2019-05-09T16:54:21.274Z,21.40
2019-05-09T16:56:50.975Z,21.40
2019-05-09T16:59:20.702Z,21.40
2019-05-09T17:01:50.709Z,21.40
2019-05-09T17:04:20.499Z,21.40
2019-05-09T17:06:50.128Z,21.40
2019-05-09T17:09:19.786Z,21.40
2019-05-09T17:11:49.490Z,21.40
2019-05-09T17:14:20.103Z,21.40
2019-05-09T17:16:52.817Z,21.40
2019-05-09T17:19:21.220Z,21.30
2019-05-09T17:21:59.607Z,21.40
2019-05-09T17:24:29.948Z,21.30
2019-05-09T17:27:00.708Z,21.30
2019-05-09T17:29:30.354Z,21.30
2019-05-09T17:31:59.972Z,21.30
2019-05-09T17:34:29.687Z,21.30
2019-05-09T17:36:59.328Z,21.30
2019-05-09T17:39:28.958Z,21.30
2019-05-09T17:41:58.638Z,21.40
2019-05-09T17:44:29.252Z,21.30
2019-05-09T17:46:58.880Z,21.20
2019-05-09T17:49:28.591Z,21.20
2019-05-09T17:51:58.545Z,21.20
2019-05-09T17:54:28.903Z,21.20
2019-05-09T17:56:59.879Z,21.20
2019-05-09T17:59:29.534Z,21.20
2019-05-09T18:01:59.158Z,21.20
2019-05-09T18:04:29.071Z,21.20
2019-05-09T18:06:58.811Z,21.20
2019-05-09T18:09:28.770Z,21.20
2019-05-09T18:11:58.473Z,21.20
2019-05-09T18:14:28.203Z,21.20
2019-05-09T18:16:58.322Z,21.20
2019-05-09T18:19:29.403Z,21.20
2019-05-09T18:21:59.499Z,21.20
2019-05-09T18:24:29.219Z,21.20
2019-05-09T18:26:58.851Z,21.20
2019-05-09T18:29:29.600Z,21.20
2019-05-09T18:32:16.831Z,21.20
2019-05-09T18:34:48.579Z,21.20
2019-05-09T18:37:18.015Z,21.20
2019-05-09T18:39:48.446Z,21.20
2019-05-09T18:42:18.231Z,21.20
2019-05-09T18:44:47.887Z,21.20
2019-05-09T18:47:18.483Z,21.20
2019-05-09T18:49:48.301Z,21.20
2019-05-09T18:52:18.012Z,21.20
2019-05-09T18:54:47.903Z,21.20
2019-05-09T18:57:17.531Z,21.20
2019-05-09T18:59:47.170Z,21.10
2019-05-09T19:02:16.967Z,21.10
2019-05-09T19:04:46.583Z,21.10
2019-05-09T19:07:22.250Z,21.10
2019-05-09T19:09:47.635Z,21.10
2019-05-09T19:12:17.275Z,21.10
2019-05-09T19:14:47.808Z,21.10
2019-05-09T19:17:50.115Z,21.10
2019-05-09T19:20:36.256Z,21.10
2019-05-09T19:23:06.027Z,21.20
2019-05-09T19:25:35.844Z,21.20
2019-05-09T19:28:06.699Z,21.20
2019-05-09T19:30:36.342Z,21.20
2019-05-09T19:33:06.232Z,21.20
2019-05-09T19:35:35.884Z,21.20
2019-05-09T19:38:05.675Z,21.30
2019-05-09T19:40:35.420Z,21.20
2019-05-09T19:43:05.123Z,21.30
2019-05-09T19:45:34.927Z,21.30
2019-05-09T19:48:04.720Z,21.30
2019-05-09T19:50:34.438Z,21.30
2019-05-09T19:53:04.155Z,21.30
2019-05-09T19:55:33.871Z,21.30
2019-05-09T19:58:03.593Z,21.30
2019-05-09T20:00:33.492Z,21.30
2019-05-09T20:03:03.196Z,21.30
2019-05-09T20:05:32.835Z,21.30
2019-05-09T20:08:02.484Z,21.30
2019-05-09T20:10:50.023Z,21.30
2019-05-09T20:13:28.678Z,21.30
2019-05-09T20:15:58.387Z,21.30
2019-05-09T20:18:28.041Z,21.30
2019-05-09T20:20:57.747Z,21.30
2019-05-09T20:23:27.447Z,21.30
2019-05-09T20:25:57.171Z,21.30
2019-05-09T20:28:26.823Z,21.30
2019-05-09T20:30:56.583Z,21.30
2019-05-09T20:33:26.255Z,21.30
2019-05-09T20:35:56.172Z,21.30
2019-05-09T20:38:26.074Z,21.30
2019-05-09T20:40:55.894Z,21.30
2019-05-09T20:43:25.712Z,21.30
2019-05-09T20:45:55.579Z,21.30
2019-05-09T20:48:25.392Z,21.30
2019-05-09T20:50:55.298Z,21.30
2019-05-09T20:53:25.190Z,21.30
2019-05-09T20:55:55.011Z,21.30
2019-05-09T20:58:24.847Z,21.30
2019-05-09T21:00:54.760Z,21.30
2019-05-09T21:03:24.571Z,21.30
2019-05-09T21:05:55.117Z,21.30
2019-05-09T21:08:25.895Z,21.30
2019-05-09T21:10:55.796Z,21.30
2019-05-09T21:13:25.619Z,21.30
2019-05-09T21:15:55.439Z,21.30
2019-05-09T21:18:25.371Z,21.30
2019-05-09T21:20:55.265Z,21.30
2019-05-09T21:23:25.257Z,21.30
2019-05-09T21:25:55.085Z,21.30
2019-05-09T21:28:24.972Z,21.30
2019-05-09T21:30:54.791Z,21.30
2019-05-09T21:33:24.614Z,21.30
2019-05-09T21:35:54.238Z,21.30
2019-05-09T21:38:23.862Z,21.30
2019-05-09T21:40:53.517Z,21.30
2019-05-09T21:43:23.139Z,21.30
2019-05-09T21:45:52.944Z,21.30
2019-05-09T21:48:22.651Z,21.30
2019-05-09T21:50:52.295Z,21.30
2019-05-09T21:53:21.937Z,21.30
2019-05-09T21:55:51.593Z,21.30
2019-05-09T21:58:21.351Z,21.30
2019-05-09T22:00:54.201Z,21.30
2019-05-09T22:03:25.685Z,21.30
2019-05-09T22:05:55.330Z,21.30
2019-05-09T22:08:25.031Z,21.30
2019-05-09T22:10:54.751Z,21.30
2019-05-09T22:13:24.377Z,21.30
2019-05-09T22:15:54.095Z,21.30
2019-05-09T22:18:23.720Z,21.30
2019-05-09T22:20:53.347Z,21.30
2019-05-09T22:23:23.947Z,21.30
2019-05-09T22:25:53.592Z,21.30
2019-05-09T22:28:23.320Z,21.30
2019-05-09T22:30:52.955Z,21.30
2019-05-09T22:33:22.579Z,21.30
2019-05-09T22:35:52.395Z,21.30
2019-05-09T22:38:22.019Z,21.30
2019-05-09T22:40:51.644Z,21.30
2019-05-09T22:43:21.280Z,21.30
2019-05-09T22:45:50.931Z,21.30
2019-05-09T22:48:20.636Z,21.30
2019-05-09T22:50:50.262Z,21.30
2019-05-09T22:53:19.897Z,21.30
2019-05-09T22:55:49.522Z,21.30
2019-05-09T22:58:19.164Z,21.30
2019-05-09T23:00:48.854Z,21.30
2019-05-09T23:03:18.492Z,21.20
2019-05-09T23:05:48.127Z,21.30
2019-05-09T23:08:17.767Z,21.30
2019-05-09T23:10:47.408Z,21.20
2019-05-09T23:13:17.039Z,21.30
2019-05-09T23:15:46.666Z,21.20
2019-05-09T23:18:16.319Z,21.20
2019-05-09T23:20:51.771Z,21.20
2019-05-09T23:23:25.875Z,21.20
2019-05-09T23:25:55.574Z,21.20
2019-05-09T23:28:25.798Z,21.20
2019-05-09T23:30:57.374Z,21.20
2019-05-09T23:33:28.432Z,21.20
2019-05-09T23:35:59.079Z,21.20
2019-05-09T23:38:28.776Z,21.20
2019-05-09T23:40:58.538Z,21.20
2019-05-09T23:43:28.296Z,21.20
2019-05-09T23:45:58.047Z,21.20
2019-05-09T23:48:27.768Z,21.20
2019-05-09T23:50:57.519Z,21.20
2019-05-09T23:53:35.254Z,21.20
2019-05-09T23:56:24.638Z,21.20
2019-05-09T23:59:11.995Z,21.20
